Time;durP1;ratioP1;P1;durP2;ratioP2;P2;SDS_P1;SDS_P2;PMS_P1;PMS_P2;Temp;Humidity;BMP_temperature;BMP_pressure;BME280_temperature;BME280_humidity;BME280_pressure;Samples;Min_cycle;Max_cycle;Signal;HPM_P1;HPM_P2
2022/04/18 00:00:12;;;;;;;3.47;2.22;;;;;;;3.58;63.93;96858.36;1646927;85;21080;-88
2022/04/18 00:02:40;;;;;;;2.60;2.40;;;;;;;3.57;63.67;96864.41;1680205;85;21078;-88
2022/04/18 00:05:07;;;;;;;2.87;2.12;;;;;;;3.55;62.97;96855.55;1663476;85;21460;-88
2022/04/18 00:07:32;;;;;;;2.72;2.40;;;;;;;3.53;62.75;96855.33;1666012;85;20986;-89
2022/04/18 00:09:58;;;;;;;3.25;1.95;;;;;;;3.50;62.31;96850.45;1662020;85;21082;-88
2022/04/18 00:12:24;;;;;;;2.75;2.30;;;;;;;3.49;63.46;96848.82;1661749;85;20962;-88
2022/04/18 00:14:49;;;;;;;3.50;2.60;;;;;;;3.47;64.10;96843.81;1661568;85;21562;-88
2022/04/18 00:17:15;;;;;;;2.47;2.27;;;;;;;3.46;64.33;96842.66;1663925;85;21046;-88
2022/04/18 00:19:41;;;;;;;4.25;2.58;;;;;;;3.44;65.24;96838.13;1657723;85;20978;-88
2022/04/18 00:22:07;;;;;;;3.65;2.35;;;;;;;3.41;64.78;96840.91;1657898;85;21011;-87
2022/04/18 00:24:32;;;;;;;2.72;2.20;;;;;;;3.37;64.70;96832.66;1661414;85;21603;-88
2022/04/18 00:27:00;;;;;;;3.67;2.55;;;;;;;3.34;64.24;96835.95;1648982;86;21019;-87
2022/04/18 00:29:26;;;;;;;4.05;2.55;;;;;;;3.32;63.85;96833.51;1652955;86;21081;-88
2022/04/18 00:31:52;;;;;;;3.52;2.40;;;;;;;3.29;63.39;96835.86;1652068;86;21380;-88
2022/04/18 00:34:18;;;;;;;3.67;2.58;;;;;;;3.27;63.73;96833.89;1636506;86;20994;-88
2022/04/18 00:36:44;;;;;;;3.22;2.80;;;;;;;3.24;63.62;96828.98;1647460;86;20990;-87
2022/04/18 00:39:11;;;;;;;4.55;2.80;;;;;;;3.23;63.79;96829.11;1653947;86;21405;-87
2022/04/18 00:41:37;;;;;;;3.17;2.58;;;;;;;3.20;64.45;96819.91;1657937;86;21046;-88
2022/04/18 00:44:03;;;;;;;3.52;2.62;;;;;;;3.16;64.70;96817.73;1660297;86;21000;-88
2022/04/18 00:46:29;;;;;;;3.00;2.65;;;;;;;3.11;64.16;96825.00;1657054;86;21449;-89
2022/04/18 00:48:55;;;;;;;4.37;2.72;;;;;;;3.07;64.42;96822.31;1657660;86;20988;-87
2022/04/18 00:51:25;;;;;;;2.92;2.65;;;;;;;2.99;64.06;96816.53;1655252;86;21501;-88
2022/04/18 00:53:56;;;;;;;2.92;2.62;;;;;;;2.94;64.15;96817.38;1653843;86;21454;-88
2022/04/18 00:56:21;;;;;;;5.30;2.80;;;;;;;2.90;63.94;96813.41;1654569;86;21014;-88
2022/04/18 00:58:47;;;;;;;3.47;2.80;;;;;;;2.84;63.88;96810.06;1655645;86;21113;-88
2022/04/18 01:01:14;;;;;;;3.50;3.15;;;;;;;2.76;64.13;96806.81;1657694;86;21054;-88
2022/04/18 01:03:41;;;;;;;4.60;3.27;;;;;;;2.68;64.31;96804.87;1652595;86;21030;-87
2022/04/18 01:06:06;;;;;;;4.90;3.58;;;;;;;2.61;63.98;96811.91;1652569;86;20979;-88
2022/04/18 01:08:34;;;;;;;5.17;3.50;;;;;;;2.54;64.29;96806.43;1654932;86;21432;-88
2022/04/18 01:11:00;;;;;;;3.90;2.92;;;;;;;2.47;64.65;96801.45;1653838;86;21108;-88
2022/04/18 01:13:27;;;;;;;5.37;3.27;;;;;;;2.40;64.50;96801.57;1650996;86;20969;-88
2022/04/18 01:15:54;;;;;;;3.98;3.00;;;;;;;2.36;64.50;96804.85;1652326;86;21034;-89
2022/04/18 01:18:20;;;;;;;3.72;3.02;;;;;;;2.30;64.61;96796.38;1651049;86;21077;-88
2022/04/18 01:20:46;;;;;;;3.85;3.00;;;;;;;2.25;64.21;96801.02;1655617;86;20959;-87
2022/04/18 01:23:11;;;;;;;4.08;3.42;;;;;;;2.20;64.11;96795.45;1656088;86;20983;-87
2022/04/18 01:31:07;;;;;;;4.42;3.65;;;;;;;2.04;64.35;96779.16;1665771;85;21007;-84
2022/04/18 01:33:32;;;;;;;5.25;3.85;;;;;;;2.00;64.33;96778.25;1662443;85;21014;-85
2022/04/18 01:35:58;;;;;;;5.35;4.40;;;;;;;1.96;64.46;96774.30;1661057;85;20940;-84
2022/04/18 01:38:24;;;;;;;6.45;4.47;;;;;;;1.92;64.51;96772.41;1664362;85;21334;-84
2022/04/18 01:40:50;;;;;;;5.92;4.87;;;;;;;1.87;64.77;96768.13;1609595;88;21079;-84
2022/04/18 01:43:15;;;;;;;6.15;5.33;;;;;;;1.85;64.78;96767.90;1662942;85;21013;-84
2022/04/18 01:45:41;;;;;;;5.72;4.72;;;;;;;1.82;64.87;96763.02;1660947;85;21010;-85
2022/04/18 01:48:07;;;;;;;9.58;5.05;;;;;;;1.77;64.91;96756.47;1661166;85;21436;-84
2022/04/18 01:50:33;;;;;;;7.97;5.42;;;;;;;1.75;65.02;96754.97;1668680;85;20956;-84
2022/04/18 01:52:59;;;;;;;6.83;5.40;;;;;;;1.72;65.26;96757.30;1665072;85;21043;-84
2022/04/18 01:55:24;;;;;;;6.35;5.53;;;;;;;1.70;65.29;96754.05;1662547;85;20979;-84
2022/04/18 01:57:50;;;;;;;13.30;7.15;;;;;;;1.67;65.61;96749.17;1655088;85;20987;-84
2022/04/18 02:00:16;;;;;;;11.10;6.60;;;;;;;1.63;65.68;96741.84;1662843;85;22163;-84
2022/04/18 02:02:42;;;;;;;15.72;9.78;;;;;;;1.60;65.45;96741.58;1668626;85;21429;-84
2022/04/18 02:05:08;;;;;;;14.28;11.08;;;;;;;1.57;65.80;96737.98;1639875;86;21048;-84
2022/04/18 02:07:33;;;;;;;16.20;10.98;;;;;;;1.54;65.91;96730.54;1596735;88;21094;-84
2022/04/18 02:09:59;;;;;;;14.28;9.98;;;;;;;1.52;65.83;96735.44;1595574;88;21015;-84
2022/04/18 02:12:25;;;;;;;19.98;11.18;;;;;;;1.49;65.71;96728.34;1654724;85;21073;-84
2022/04/18 02:14:51;;;;;;;14.28;10.93;;;;;;;1.47;65.71;96722.98;1667997;85;21342;-84
2022/04/18 02:17:17;;;;;;;14.45;8.58;;;;;;;1.45;65.87;96728.20;1659398;85;21062;-84
2022/04/18 02:19:44;;;;;;;9.43;7.58;;;;;;;1.42;65.97;96732.28;1656157;85;21405;-84
2022/04/18 02:22:12;;;;;;;10.48;7.03;;;;;;;1.40;66.10;96726.47;1653746;85;21090;-84
2022/04/18 02:24:39;;;;;;;12.88;9.10;;;;;;;1.39;66.07;96730.42;1663310;85;21117;-84
2022/04/18 02:27:09;;;;;;;11.95;8.95;;;;;;;1.36;66.36;96727.64;1657673;85;21033;-84
2022/04/18 02:29:35;;;;;;;15.30;11.85;;;;;;;1.34;66.44;96724.84;1651035;86;21092;-84
2022/04/18 02:34:45;;;;;;;18.00;10.90;;;;;;;1.31;66.67;96725.09;1649403;86;21096;-84
2022/04/18 02:37:11;;;;;;;17.65;12.85;;;;;;;1.29;66.80;96721.33;1656932;86;21406;-84
2022/04/18 02:39:37;;;;;;;18.60;12.15;;;;;;;1.27;66.94;96721.92;1649943;86;20963;-84
2022/04/18 02:42:03;;;;;;;20.43;13.55;;;;;;;1.26;67.03;96722.85;1646586;86;21384;-84
2022/04/18 02:44:29;;;;;;;22.05;13.58;;;;;;;1.23;67.14;96720.53;1651082;86;21005;-84
2022/04/18 02:46:55;;;;;;;21.37;13.88;;;;;;;1.22;67.46;96720.65;1651157;86;21046;-84
2022/04/18 02:49:21;;;;;;;19.15;13.22;;;;;;;1.19;67.49;96717.39;1642940;86;21018;-84
2022/04/18 02:51:46;;;;;;;18.87;12.65;;;;;;;1.19;67.29;96718.67;1652874;86;21393;-84
2022/04/18 02:54:12;;;;;;;18.15;12.03;;;;;;;1.18;67.55;96714.48;1649537;86;21062;-84
2022/04/18 02:56:38;;;;;;;15.78;11.38;;;;;;;1.18;67.49;96715.77;1646092;86;21035;-84
2022/04/18 02:59:03;;;;;;;17.05;9.83;;;;;;;1.17;67.56;96712.86;1651536;86;21080;-84
2022/04/18 03:01:29;;;;;;;11.30;8.38;;;;;;;1.16;67.39;96716.34;1646150;86;21441;-84
2022/04/18 03:03:55;;;;;;;11.53;8.73;;;;;;;1.15;67.32;96713.91;1653966;86;21071;-84
2022/04/18 03:06:21;;;;;;;12.68;9.33;;;;;;;1.15;67.40;96707.51;1642328;86;21441;-84
2022/04/18 03:08:47;;;;;;;13.30;8.50;;;;;;;1.13;67.43;96703.75;1647729;86;21035;-84
2022/04/18 03:11:12;;;;;;;12.33;8.88;;;;;;;1.12;67.38;96703.41;1639216;86;21015;-84
2022/04/18 03:13:45;;;;;;;14.23;8.38;;;;;;;1.12;67.38;96701.31;1643034;86;21378;-85
2022/04/18 03:16:12;;;;;;;11.78;8.48;;;;;;;1.09;67.14;96701.09;1642823;86;21007;-85
2022/04/18 03:18:38;;;;;;;12.35;8.90;;;;;;;1.10;67.22;96698.06;1649433;86;22205;-84
2022/04/18 03:21:04;;;;;;;13.48;9.10;;;;;;;1.09;67.37;96697.71;1627349;87;20990;-84
2022/04/18 03:23:30;;;;;;;14.28;9.80;;;;;;;1.07;67.42;96697.83;1614456;88;21043;-84
2022/04/18 03:25:57;;;;;;;14.90;10.55;;;;;;;1.05;67.56;96700.16;1633266;87;21002;-84
2022/04/18 03:28:23;;;;;;;16.85;10.40;;;;;;;1.01;67.63;96695.74;1628703;87;21051;-84
2022/04/18 03:30:49;;;;;;;16.80;11.88;;;;;;;1.00;67.66;96698.42;1621767;87;21039;-84
2022/04/18 03:33:16;;;;;;;14.00;11.65;;;;;;;0.98;68.00;96687.02;1618706;87;21479;-84
2022/04/18 03:39:50;;;;;;;15.95;12.82;;;;;;;0.99;68.12;96692.48;1625411;87;21009;-84
2022/04/18 03:40:54;;;;;;;19.77;13.38;;;;;;;0.99;68.22;96684.81;1622071;87;21060;-84
2022/04/18 03:43:19;;;;;;;15.60;11.80;;;;;;;0.99;68.29;96682.72;1629177;87;21028;-84
2022/04/18 03:45:45;;;;;;;17.90;11.73;;;;;;;1.00;68.49;96688.19;1632490;87;21064;-84
2022/04/18 03:48:11;;;;;;;18.67;12.80;;;;;;;1.00;68.42;96683.06;1629084;87;21054;-84
2022/04/18 03:50:37;;;;;;;17.10;12.40;;;;;;;1.04;68.74;96682.72;1631184;87;21050;-84
2022/04/18 03:53:04;;;;;;;17.32;12.28;;;;;;;1.06;68.64;96680.03;1628299;87;21013;-84
2022/04/18 03:55:31;;;;;;;16.95;12.98;;;;;;;1.09;68.69;96681.89;1650640;86;20987;-84
2022/04/18 03:57:56;;;;;;;18.48;12.90;;;;;;;1.13;68.91;96678.63;1642584;86;21055;-84
2022/04/18 04:00:24;;;;;;;18.98;13.28;;;;;;;1.14;68.76;96672.14;1650136;86;21517;-84
2022/04/18 04:02:49;;;;;;;20.32;13.10;;;;;;;1.18;68.65;96670.97;1649555;86;21357;-84
2022/04/18 04:05:15;;;;;;;15.55;12.33;;;;;;;1.14;68.91;96661.09;1643727;86;21042;-84
2022/04/18 04:07:41;;;;;;;19.12;12.73;;;;;;;1.30;68.83;96673.07;1645770;86;21032;-84
2022/04/18 04:10:08;;;;;;;20.65;13.28;;;;;;;1.36;68.76;96673.88;1655124;86;21442;-84
2022/04/18 04:12:34;;;;;;;18.52;12.47;;;;;;;1.41;69.20;96670.95;1648347;86;21090;-84
2022/04/18 04:15:00;;;;;;;18.87;12.58;;;;;;;1.45;69.35;96665.93;1649807;86;21491;-84
2022/04/18 04:17:26;;;;;;;20.82;12.85;;;;;;;1.49;68.79;96669.91;1651214;86;21124;-84
2022/04/18 04:19:52;;;;;;;18.67;12.25;;;;;;;1.53;68.83;96665.36;1649535;86;21088;-83
2022/04/18 04:22:18;;;;;;;17.90;13.28;;;;;;;1.57;68.57;96666.27;1649765;86;21090;-84
2022/04/18 04:24:44;;;;;;;20.97;13.93;;;;;;;1.62;68.56;96666.72;1648797;86;21002;-84
2022/04/18 04:27:09;;;;;;;18.62;12.13;;;;;;;1.70;69.16;96668.70;1650268;86;22112;-84
2022/04/18 04:29:35;;;;;;;17.17;12.28;;;;;;;1.74;69.06;96667.05;1647737;86;21076;-84
2022/04/18 04:32:01;;;;;;;18.12;11.93;;;;;;;1.79;68.93;96671.37;1644439;86;21477;-84
2022/04/18 04:34:27;;;;;;;18.85;11.48;;;;;;;1.84;68.69;96663.31;1650094;86;20994;-84
2022/04/18 04:36:53;;;;;;;19.25;11.93;;;;;;;1.88;68.89;96663.41;1642030;86;21043;-84
2022/04/18 04:39:19;;;;;;;18.07;12.03;;;;;;;1.92;68.38;96658.84;1646863;86;21077;-84
2022/04/18 04:41:44;;;;;;;15.85;11.00;;;;;;;1.95;68.77;96658.16;1652029;86;21392;-84
2022/04/18 04:44:10;;;;;;;14.45;11.48;;;;;;;1.98;68.90;96659.66;1644051;86;20963;-84
2022/04/18 04:46:36;;;;;;;16.45;11.38;;;;;;;2.03;68.72;96661.38;1645604;86;21065;-85
2022/04/18 04:49:03;;;;;;;17.80;11.70;;;;;;;2.08;68.52;96658.79;1649605;86;21456;-84
2022/04/18 04:51:28;;;;;;;20.17;13.15;;;;;;;2.16;68.15;96653.53;1653831;86;21067;-84
2022/04/18 04:53:54;;;;;;;15.03;11.30;;;;;;;2.23;67.94;96653.38;1638390;86;21067;-84
2022/04/18 04:56:23;;;;;;;18.27;11.60;;;;;;;2.28;68.10;96652.09;1655561;86;21007;-84
2022/04/18 04:58:47;;;;;;;16.17;11.78;;;;;;;2.33;68.16;96647.39;1627587;86;21491;-83
2022/04/18 05:01:13;;;;;;;19.62;15.40;;;;;;;2.38;69.03;96643.98;1636133;86;21078;-84
2022/04/18 05:03:39;;;;;;;20.57;15.10;;;;;;;2.41;67.97;96647.56;1640822;86;21028;-84
2022/04/18 05:06:06;;;;;;;21.02;16.35;;;;;;;2.48;67.97;96647.90;1634258;86;21109;-84
2022/04/18 05:08:32;;;;;;;24.35;18.07;;;;;;;2.57;67.57;96650.16;1629712;86;21145;-84
2022/04/18 05:11:00;;;;;;;25.08;17.40;;;;;;;2.61;67.04;96654.13;1633766;86;21064;-84
2022/04/18 05:13:27;;;;;;;22.02;17.77;;;;;;;2.65;66.34;96656.78;1631643;86;21075;-84
2022/04/18 05:15:52;;;;;;;19.25;16.60;;;;;;;2.70;66.54;96663.63;1633115;86;21157;-84
2022/04/18 05:18:18;;;;;;;23.05;17.37;;;;;;;2.75;66.38;96662.77;1622406;88;21438;-84
2022/04/18 05:20:47;;;;;;;22.77;17.45;;;;;;;2.80;66.25;96670.92;1614184;86;21078;-84
2022/04/18 05:23:19;;;;;;;25.17;17.40;;;;;;;2.83;66.60;96667.28;1614871;88;20941;-84
2022/04/18 05:25:46;;;;;;;25.32;18.27;;;;;;;2.84;65.64;96668.91;1624016;87;21043;-84
2022/04/18 05:28:12;;;;;;;22.90;17.10;;;;;;;2.87;65.61;96666.89;1625649;87;21393;-84
2022/04/18 05:30:39;;;;;;;26.30;18.55;;;;;;;2.89;65.67;96659.88;1619599;86;21006;-84
2022/04/18 05:33:06;;;;;;;21.82;17.60;;;;;;;2.92;65.84;96657.52;1617525;87;21413;-84
2022/04/18 05:35:32;;;;;;;23.95;18.20;;;;;;;2.98;66.30;96657.84;1621042;86;21404;-84
2022/04/18 05:37:58;;;;;;;25.25;18.85;;;;;;;3.05;65.26;96656.84;1620315;87;21090;-84
2022/04/18 05:40:23;;;;;;;25.48;16.95;;;;;;;3.10;65.45;96659.86;1628460;87;21090;-84
2022/04/18 05:42:51;;;;;;;20.90;15.88;;;;;;;3.18;65.65;96655.36;1629366;87;21019;-84
2022/04/18 05:45:17;;;;;;;26.10;17.50;;;;;;;3.27;65.79;96656.69;1624574;86;21027;-84
2022/04/18 05:47:42;;;;;;;24.82;18.30;;;;;;;3.31;65.96;96655.48;1633905;86;21027;-84
2022/04/18 05:50:09;;;;;;;22.58;17.00;;;;;;;3.38;66.35;96661.37;1618864;87;21384;-84
2022/04/18 05:52:35;;;;;;;22.85;16.40;;;;;;;3.41;65.39;96666.23;1625088;87;21010;-84
2022/04/18 05:55:01;;;;;;;18.65;14.58;;;;;;;3.40;65.04;96673.13;1627897;87;21378;-85
2022/04/18 05:57:27;;;;;;;18.60;15.43;;;;;;;3.40;64.16;96667.99;1608262;87;21050;-83
2022/04/18 05:59:52;;;;;;;20.25;14.65;;;;;;;3.41;66.08;96661.91;1627941;87;21058;-83
2022/04/18 06:02:18;;;;;;;24.92;17.00;;;;;;;3.47;65.45;96656.75;1619957;86;21007;-83
2022/04/18 06:04:44;;;;;;;23.52;16.97;;;;;;;3.54;65.54;96653.98;1630734;87;21965;-83
2022/04/18 06:07:10;;;;;;;24.75;17.27;;;;;;;3.59;65.04;96656.52;1628076;86;21023;-83
2022/04/18 06:09:35;;;;;;;23.45;18.07;;;;;;;3.62;65.63;96658.00;1622437;87;21074;-83
2022/04/18 06:12:01;;;;;;;29.90;19.42;;;;;;;3.67;65.38;96653.75;1621113;86;20976;-83
2022/04/18 06:14:27;;;;;;;25.43;19.50;;;;;;;3.71;65.54;96654.63;1623927;86;21450;-83
2022/04/18 06:16:53;;;;;;;30.12;22.50;;;;;;;3.74;65.57;96659.53;1620176;87;20979;-83
2022/04/18 06:19:19;;;;;;;30.40;21.95;;;;;;;3.78;65.70;96658.78;1625700;86;20999;-83
2022/04/18 06:21:46;;;;;;;20.72;14.18;;;;;;;3.83;65.71;96656.62;1628795;87;20967;-83
2022/04/18 06:24:12;;;;;;;28.15;19.48;;;;;;;3.84;65.49;96657.77;1630168;87;21002;-83
2022/04/18 06:26:38;;;;;;;30.35;21.30;;;;;;;3.78;65.06;96671.63;1627785;87;21094;-83
2022/04/18 06:29:05;;;;;;;29.60;22.30;;;;;;;3.74;65.44;96677.52;1620085;86;21032;-83
2022/04/18 06:31:31;;;;;;;30.68;22.42;;;;;;;3.75;65.69;96682.19;1623572;87;21030;-83
2022/04/18 06:33:56;;;;;;;29.90;21.57;;;;;;;3.72;65.45;96682.42;1628374;86;21014;-82
2022/04/18 06:36:22;;;;;;;26.37;20.35;;;;;;;3.69;65.42;96692.50;1630471;86;21402;-83
2022/04/18 06:38:48;;;;;;;27.42;21.75;;;;;;;3.63;66.05;96697.36;1627239;86;21022;-83
2022/04/18 06:41:15;;;;;;;22.07;16.60;;;;;;;3.56;66.38;96690.16;1625291;86;21099;-83
2022/04/18 06:43:41;;;;;;;21.50;16.50;;;;;;;3.52;66.50;96686.23;1627533;87;21021;-83
2022/04/18 06:46:07;;;;;;;16.85;14.80;;;;;;;3.49;67.43;96683.11;1619971;87;20991;-83
2022/04/18 06:48:32;;;;;;;20.57;15.88;;;;;;;3.44;67.76;96673.23;1624407;87;21007;-83
2022/04/18 06:50:59;;;;;;;21.40;15.20;;;;;;;3.41;68.37;96667.52;1625019;86;21042;-83
2022/04/18 06:53:25;;;;;;;17.92;13.90;;;;;;;3.38;68.87;96663.94;1625020;87;22321;-83
2022/04/18 06:58:34;;;;;;;19.02;14.03;;;;;;;3.51;69.97;96649.92;1629783;86;21424;-83
2022/04/18 07:01:01;;;;;;;18.45;14.43;;;;;;;3.66;71.14;96650.84;1627972;87;21098;-83
2022/04/18 07:03:27;;;;;;;16.42;14.50;;;;;;;3.71;71.43;96657.67;1627826;87;21049;-83
2022/04/18 07:05:53;;;;;;;15.75;13.75;;;;;;;3.73;71.85;96654.02;1614614;87;20982;-83
2022/04/18 07:08:18;;;;;;;20.88;18.02;;;;;;;3.78;71.82;96644.64;1618554;87;21363;-83
2022/04/18 07:10:44;;;;;;;23.02;19.98;;;;;;;3.90;72.03;96648.70;1630179;87;21014;-83
2022/04/18 07:13:10;;;;;;;35.10;26.52;;;;;;;3.90;71.76;96645.69;1623416;87;20970;-83
2022/04/18 07:15:36;;;;;;;41.92;27.25;;;;;;;3.93;72.14;96639.94;1625048;87;21035;-83
2022/04/18 07:18:03;;;;;;;24.10;17.10;;;;;;;4.10;72.46;96637.50;1619410;87;21043;-83
2022/04/18 07:20:29;;;;;;;17.98;14.55;;;;;;;4.30;72.33;96631.06;1629217;86;20995;-83
2022/04/18 07:22:55;;;;;;;17.20;12.18;;;;;;;4.47;71.76;96631.66;1630755;87;21006;-83
2022/04/18 07:25:21;;;;;;;18.75;12.70;;;;;;;4.62;71.57;96633.33;1625246;87;21045;-83
2022/04/18 07:27:47;;;;;;;15.60;11.65;;;;;;;4.71;71.61;96622.18;1635291;87;21074;-84
2022/04/18 07:30:13;;;;;;;15.20;11.75;;;;;;;4.86;70.98;96631.56;1636071;87;21086;-83
2022/04/18 07:32:40;;;;;;;13.62;10.60;;;;;;;5.04;72.18;96624.72;1632787;87;21077;-84
2022/04/18 07:35:10;;;;;;;12.70;9.73;;;;;;;5.15;70.70;96627.13;1632105;87;21453;-84
2022/04/18 07:37:36;;;;;;;16.82;12.13;;;;;;;5.12;69.45;96619.69;1634996;87;21049;-83
2022/04/18 07:40:03;;;;;;;15.18;12.25;;;;;;;5.07;68.63;96625.75;1634984;87;21022;-83
2022/04/18 07:42:29;;;;;;;12.73;10.93;;;;;;;5.06;69.57;96626.70;1635263;87;21021;-83
2022/04/18 07:44:55;;;;;;;14.10;11.75;;;;;;;5.11;68.88;96624.51;1637033;87;21002;-83
2022/04/18 07:47:20;;;;;;;13.72;11.03;;;;;;;5.24;69.02;96630.16;1630641;87;21975;-85
2022/04/18 07:49:46;;;;;;;15.15;11.20;;;;;;;5.40;68.72;96627.77;1637982;87;20962;-83
2022/04/18 07:52:12;;;;;;;12.55;9.88;;;;;;;5.57;68.81;96622.80;1631153;87;21152;-84
2022/04/18 07:54:38;;;;;;;9.50;7.37;;;;;;;5.73;67.21;96626.84;1629071;87;20975;-84
2022/04/18 07:57:05;;;;;;;11.03;8.45;;;;;;;5.73;65.73;96629.42;1636500;86;21010;-85
2022/04/18 07:59:31;;;;;;;11.50;9.50;;;;;;;5.63;64.77;96623.02;1635663;86;21437;-84
2022/04/18 08:01:57;;;;;;;11.28;8.55;;;;;;;5.67;66.34;96620.95;1634220;86;21113;-85
2022/04/18 08:04:23;;;;;;;9.88;7.47;;;;;;;5.83;66.01;96623.70;1636800;86;20996;-84
2022/04/18 08:06:49;;;;;;;12.33;7.37;;;;;;;5.90;63.50;96623.50;1633101;86;21381;-85
2022/04/18 08:09:14;;;;;;;10.25;7.72;;;;;;;5.90;61.92;96628.66;1638247;87;21039;-85
2022/04/18 08:11:40;;;;;;;8.65;7.03;;;;;;;5.92;62.56;96623.35;1636199;87;21118;-86
2022/04/18 08:14:06;;;;;;;11.28;7.97;;;;;;;5.96;60.82;96618.22;1637852;87;21007;-82
2022/04/18 08:16:34;;;;;;;10.35;8.30;;;;;;;6.03;63.07;96614.59;1635764;87;21299;-86
2022/04/18 08:19:00;;;;;;;12.50;9.03;;;;;;;6.20;60.84;96614.58;1622543;87;20998;-84
2022/04/18 08:21:26;;;;;;;12.00;8.13;;;;;;;6.22;62.04;96612.66;1625370;87;21050;-85
2022/04/18 08:23:51;;;;;;;9.00;7.30;;;;;;;6.36;62.61;96610.03;1637230;87;21026;-84
2022/04/18 08:26:19;;;;;;;10.88;8.05;;;;;;;6.51;60.75;96604.66;1635941;87;21063;-85
2022/04/18 08:28:45;;;;;;;10.95;8.83;;;;;;;6.61;62.50;96601.48;1630353;86;21084;-83
2022/04/18 08:31:11;;;;;;;9.60;8.23;;;;;;;6.60;60.25;96605.52;1632245;87;21149;-87
2022/04/18 08:33:37;;;;;;;10.20;7.45;;;;;;;6.62;59.55;96603.59;1631661;87;21047;-85
2022/04/18 08:36:03;;;;;;;8.93;6.37;;;;;;;6.74;59.60;96598.98;1623994;87;21019;-84
2022/04/18 08:38:31;;;;;;;9.15;7.47;;;;;;;6.84;59.15;96598.41;1634355;87;21073;-87
2022/04/18 08:41:00;;;;;;;7.42;5.83;;;;;;;6.88;57.44;96601.82;1629910;87;21437;-86
2022/04/18 08:43:26;;;;;;;6.67;5.00;;;;;;;6.94;52.37;96600.39;1631139;86;21437;-83
2022/04/18 08:45:52;;;;;;;9.60;8.08;;;;;;;6.90;55.11;96596.50;1625175;86;21181;-83
2022/04/18 08:53:46;;;;;;;9.70;6.87;;;;;;;7.20;54.00;96588.25;1604392;87;21373;-84
2022/04/18 08:56:12;;;;;;;7.67;5.35;;;;;;;7.29;54.62;96594.73;1624549;87;21011;-84
2022/04/18 08:58:40;;;;;;;7.62;5.62;;;;;;;7.30;53.26;96596.34;1614222;87;21007;-84
2022/04/18 09:01:05;;;;;;;6.53;4.60;;;;;;;7.36;53.78;96586.70;1594400;89;21071;-84
2022/04/18 09:03:31;;;;;;;5.50;4.22;;;;;;;7.44;52.67;96582.34;1622882;87;20952;-84
2022/04/18 09:06:11;;;;;;;6.45;4.15;;;;;;;7.49;49.53;96574.14;1618800;87;21003;-84
2022/04/18 09:08:51;;;;;;;6.40;5.37;;;;;;;7.56;50.76;96581.58;1628670;87;20988;-84
2022/04/18 09:11:32;;;;;;;7.42;5.70;;;;;;;7.48;50.15;96566.02;1630820;86;20948;-83
2022/04/18 09:14:12;;;;;;;5.97;4.70;;;;;;;7.33;50.92;96570.21;1623973;87;20991;-85
2022/04/18 09:16:39;;;;;;;6.42;4.50;;;;;;;7.42;51.06;96565.38;1629998;87;21039;-84
2022/04/18 09:19:14;;;;;;;4.62;3.72;;;;;;;7.58;49.73;96556.36;1617370;87;21051;-84
2022/04/18 09:21:56;;;;;;;5.50;4.20;;;;;;;7.72;49.75;96554.94;1619078;87;20982;-84
2022/04/18 09:24:32;;;;;;;6.58;4.50;;;;;;;7.64;49.20;96557.50;1622989;86;21015;-83
2022/04/18 09:27:15;;;;;;;6.83;5.58;;;;;;;7.51;49.98;96565.73;1624486;86;21019;-82
2022/04/18 09:29:41;;;;;;;7.12;5.87;;;;;;;7.30;49.87;96564.84;1612192;87;21058;-81
2022/04/18 09:32:12;;;;;;;8.93;6.28;;;;;;;7.14;50.38;96566.08;1626717;87;21039;-81
2022/04/18 09:34:39;;;;;;;7.20;5.12;;;;;;;7.10;50.26;96563.00;1630481;87;20995;-81
2022/04/18 09:37:19;;;;;;;7.78;5.70;;;;;;;7.23;51.55;96565.16;1626452;87;21030;-82
2022/04/18 09:39:52;;;;;;;5.75;4.47;;;;;;;7.37;50.74;96559.39;1646373;87;21413;-83
2022/04/18 09:42:20;;;;;;;6.42;4.87;;;;;;;7.53;48.21;96549.58;1643528;87;21396;-82
2022/04/18 09:44:46;;;;;;;9.28;6.50;;;;;;;7.58;46.07;96548.61;1619050;87;20982;-82
2022/04/18 09:47:16;;;;;;;7.70;6.33;;;;;;;7.66;47.80;96551.22;1629515;88;21470;-82
2022/04/18 09:49:42;;;;;;;7.33;5.47;;;;;;;7.85;48.72;96553.19;1648738;87;21021;-82
2022/04/18 09:52:10;;;;;;;8.00;6.45;;;;;;;7.91;46.00;96559.81;1625776;88;21351;-82
2022/04/18 09:54:37;;;;;;;8.40;7.37;;;;;;;7.83;46.71;96559.81;1615775;87;21074;-82
2022/04/18 09:57:06;;;;;;;9.95;7.25;;;;;;;8.02;48.32;96553.03;1638163;87;21030;-83
2022/04/18 09:59:32;;;;;;;10.58;7.45;;;;;;;8.08;46.85;96545.09;1653386;87;20990;-82
2022/04/18 10:02:01;;;;;;;7.17;5.40;;;;;;;8.06;48.69;96538.80;1653549;87;21507;-83
2022/04/18 10:04:27;;;;;;;8.00;6.50;;;;;;;8.02;48.77;96545.27;1654229;87;21029;-82
2022/04/18 10:06:53;;;;;;;9.43;6.53;;;;;;;7.78;44.89;96553.80;1654575;87;20999;-82
2022/04/18 10:09:24;;;;;;;5.95;4.37;;;;;;;7.48;45.69;96551.35;1654578;87;21453;-82
2022/04/18 10:11:52;;;;;;;5.40;4.83;;;;;;;7.36;45.91;96547.92;1654447;87;20994;-83
2022/04/18 10:14:18;;;;;;;6.97;5.60;;;;;;;7.20;47.42;96559.02;1654272;87;20974;-83
2022/04/18 10:16:45;;;;;;;9.85;6.85;;;;;;;7.13;47.87;96570.44;1635114;87;20994;-82
2022/04/18 10:19:51;;;;;;;8.68;7.72;;;;;;;6.96;49.96;96564.88;1634431;87;21067;-82
2022/04/18 10:23:07;;;;;;;11.53;8.80;;;;;;;6.76;50.12;96559.12;1626725;87;20998;-82
2022/04/18 10:26:22;;;;;;;10.35;7.67;;;;;;;6.60;50.46;96562.91;1627685;87;21002;-82
2022/04/18 10:28:50;;;;;;;9.20;7.15;;;;;;;6.46;50.94;96564.27;1620859;87;21113;-82
2022/04/18 10:31:26;;;;;;;9.93;7.47;;;;;;;6.38;51.70;96562.13;1624785;87;21097;-82
2022/04/18 10:33:52;;;;;;;13.00;7.22;;;;;;;6.35;52.83;96559.38;1622510;86;21392;-82
2022/04/18 10:36:31;;;;;;;10.72;7.95;;;;;;;6.33;52.71;96559.98;1617260;87;21016;-82
2022/04/18 10:39:07;;;;;;;8.98;7.47;;;;;;;6.29;52.33;96554.32;1634622;87;21054;-82
2022/04/18 10:41:41;;;;;;;10.63;8.45;;;;;;;6.32;52.36;96539.01;1623912;87;21010;-82
2022/04/18 10:44:13;;;;;;;9.23;7.97;;;;;;;6.39;52.54;96535.36;1618023;87;21440;-82
2022/04/18 10:46:55;;;;;;;12.53;8.88;;;;;;;6.46;52.77;96535.88;1618187;87;21010;-82
2022/04/18 10:49:31;;;;;;;10.08;8.43;;;;;;;6.55;52.68;96534.17;1620575;87;21066;-81
2022/04/18 10:51:56;;;;;;;10.80;8.63;;;;;;;6.57;52.68;96527.89;1617438;87;21063;-81
2022/04/18 10:54:25;;;;;;;11.40;7.87;;;;;;;6.72;52.56;96520.87;1619179;86;21418;-82
2022/04/18 10:57:02;;;;;;;14.95;9.10;;;;;;;7.00;51.82;96517.61;1617251;89;21573;-81
2022/04/18 10:59:33;;;;;;;9.58;8.23;;;;;;;7.22;52.69;96511.37;1617251;87;20991;-81
2022/04/18 11:02:01;;;;;;;9.20;7.87;;;;;;;7.52;50.40;96515.64;1625146;87;21429;-82
2022/04/18 11:04:34;;;;;;;9.08;7.40;;;;;;;7.70;50.29;96502.08;1617161;87;22107;-82
2022/04/18 11:07:07;;;;;;;10.28;7.95;;;;;;;7.86;49.59;96499.98;1644621;86;21412;-82
2022/04/18 11:09:44;;;;;;;6.70;5.42;;;;;;;8.03;47.82;96503.37;1644832;87;21036;-82
2022/04/18 11:12:13;;;;;;;8.10;5.70;;;;;;;8.14;47.49;96503.06;1626825;87;20972;-82
2022/04/18 11:14:53;;;;;;;8.63;6.17;;;;;;;8.25;48.09;96487.17;1644999;87;21003;-82
2022/04/18 11:17:31;;;;;;;6.97;5.20;;;;;;;8.32;48.24;96488.63;1643733;87;21086;-82
2022/04/18 11:19:57;;;;;;;6.62;4.53;;;;;;;8.38;45.90;96491.39;1637715;86;21369;-82
2022/04/18 11:22:23;;;;;;;7.75;5.47;;;;;;;8.48;44.34;96479.56;1641915;86;21004;-82
2022/04/18 11:24:54;;;;;;;6.92;5.05;;;;;;;8.46;44.35;96478.92;1617296;89;21078;-81
2022/04/18 11:27:25;;;;;;;6.10;4.75;;;;;;;8.59;44.59;96474.50;1617412;87;20987;-82
2022/04/18 11:30:04;;;;;;;4.35;3.77;;;;;;;8.72;44.51;96479.96;1622545;87;21027;-82
2022/04/18 11:32:34;;;;;;;7.33;5.83;;;;;;;8.90;43.70;96472.77;1635161;87;21042;-81
2022/04/18 11:35:05;;;;;;;5.50;4.28;;;;;;;9.10;45.26;96463.27;1608011;86;21078;-82
2022/04/18 11:37:34;;;;;;;;;;;;;;;9.33;42.57;96468.82;1630142;87;21159;-82
2022/04/18 11:40:15;;;;;;;5.75;4.90;;;;;;;9.62;43.96;96468.14;1625972;87;20137;-81
2022/04/18 11:42:42;;;;;;;6.50;4.83;;;;;;;9.70;42.64;96462.08;1626563;87;21006;-82
2022/04/18 11:45:10;;;;;;;6.17;4.60;;;;;;;9.62;41.66;96457.77;1648156;87;20971;-83
2022/04/18 11:47:47;;;;;;;7.65;5.92;;;;;;;9.50;43.04;96456.55;1645950;87;21044;-82
2022/04/18 11:50:21;;;;;;;6.35;4.83;;;;;;;9.28;42.43;96463.84;1643829;87;21453;-83
2022/04/18 11:52:44;;;;;;;7.75;6.25;;;;;;;9.07;42.69;96458.42;1642910;86;21044;-82
2022/04/18 11:55:14;;;;;;;9.65;6.03;;;;;;;9.22;44.23;96446.36;1631431;87;21112;-82